KAFO/AFO METAR and TAF weather

Enter ICAO airport designator
Station Type Date Time Source
KAFO METAR 2022/06/25 22:15 UTC NOAA

KAFO 252215Z AUTO 36003KT 10SM CLR 21/02 A3031 RMK AO2


Station Type Date Time Source
KAFO Decoded METAR 2022/06/25 22:15 UTC NOAA

Station name not available
Jun 25, 2022 - 06:15 PM EDT / 2022.06.25 2215 UTC
Wind: from the N (360 degrees) at 3 MPH (3 KT):0
Visibility: 10 mile(s):0
Sky conditions: clear
Temperature: 69 F (21 C)
Dew Point: 35 F (2 C)
Relative Humidity: 28%
Pressure (altimeter): 30.31 in. Hg (1026 hPa)
ob: KAFO 252215Z AUTO 36003KT 10SM CLR 21/02 A3031 RMK AO2
cycle: 22

Station Type Date Time Source
KAFO TAF UTC NOAA

Error!

Example: see airport list